createdAt,value
2022-08-07T00:00:40.081Z,77.30
2022-08-07T00:02:44.731Z,77.50
2022-08-07T00:04:47.510Z,77.70
2022-08-07T00:06:51.770Z,77.70
2022-08-07T00:08:54.916Z,77.80
2022-08-07T00:10:58.360Z,78.70
2022-08-07T00:13:17.515Z,78.30
2022-08-07T00:15:37.680Z,78.70
2022-08-07T00:17:48.866Z,78.60
2022-08-07T00:20:01.301Z,78.50
2022-08-07T00:22:05.877Z,78.60
2022-08-07T00:24:09.154Z,78.80
2022-08-07T00:26:18.898Z,79.00
2022-08-07T00:28:35.717Z,79.00
2022-08-07T00:30:48.776Z,79.00
2022-08-07T00:32:51.699Z,79.40
2022-08-07T00:34:54.244Z,79.90
2022-08-07T00:36:56.926Z,80.20
2022-08-07T00:38:59.644Z,80.20
2022-08-07T00:41:04.054Z,80.40
2022-08-07T00:44:01.889Z,80.50
2022-08-07T00:45:36.656Z,80.90
2022-08-07T00:48:08.884Z,81.30
2022-08-07T00:50:20.419Z,81.00
2022-08-07T00:52:25.106Z,81.30
2022-08-07T00:54:29.449Z,81.90
2022-08-07T00:56:33.982Z,82.50
2022-08-07T00:58:36.668Z,82.90
2022-08-07T01:00:53.751Z,82.90
2022-08-07T01:02:57.185Z,82.70
2022-08-07T01:05:00.921Z,82.70
2022-08-07T01:07:05.763Z,82.70
2022-08-07T01:09:10.370Z,82.70
2022-08-07T01:12:23.537Z,82.80
2022-08-07T01:13:57.236Z,82.90
2022-08-07T01:16:05.502Z,83.00
2022-08-07T01:18:09.650Z,83.50
2022-08-07T01:20:16.701Z,84.10
2022-08-07T01:22:29.001Z,84.10
2022-08-07T01:24:32.748Z,84.40
2022-08-07T01:26:36.826Z,84.60
2022-08-07T01:28:46.358Z,84.70
2022-08-07T01:30:57.359Z,84.70
2022-08-07T01:33:02.403Z,84.60
2022-08-07T01:35:07.616Z,84.50
2022-08-07T01:37:17.267Z,84.50
2022-08-07T01:39:22.716Z,84.60
2022-08-07T01:41:40.855Z,84.50
2022-08-07T01:44:05.432Z,84.60
2022-08-07T01:46:12.181Z,85.00
2022-08-07T01:48:29.856Z,85.00
2022-08-07T01:50:38.318Z,85.00
2022-08-07T01:52:49.755Z,85.30
2022-08-07T01:55:02.030Z,85.00
2022-08-07T01:57:34.043Z,85.00
2022-08-07T01:59:49.509Z,84.70
2022-08-07T02:02:06.548Z,84.60
2022-08-07T02:04:18.156Z,84.60
2022-08-07T02:06:32.621Z,84.40
2022-08-07T02:08:42.540Z,84.50
2022-08-07T02:10:54.996Z,84.90
2022-08-07T02:13:01.770Z,85.40
2022-08-07T02:15:57.677Z,85.90
2022-08-07T02:18:04.863Z,86.80
2022-08-07T02:20:17.116Z,87.20
2022-08-07T02:22:25.767Z,87.80
2022-08-07T02:24:30.035Z,88.10
2022-08-07T02:26:34.825Z,88.20
2022-08-07T02:28:43.651Z,87.80
2022-08-07T02:30:47.800Z,87.70
2022-08-07T02:33:07.300Z,87.80
2022-08-07T02:35:12.901Z,87.90
2022-08-07T02:37:26.939Z,88.30
2022-08-07T02:39:43.818Z,88.50
2022-08-07T02:41:57.494Z,87.50
2022-08-07T02:44:03.346Z,87.90
2022-08-07T02:46:11.076Z,88.10
2022-08-07T02:48:15.650Z,87.90
2022-08-07T02:50:21.530Z,87.80
2022-08-07T02:52:33.398Z,88.10
2022-08-07T02:54:41.783Z,88.80
2022-08-07T02:56:48.142Z,89.40
2022-08-07T02:58:54.184Z,89.50
2022-08-07T03:00:59.571Z,89.30
2022-08-07T03:03:06.030Z,89.30
2022-08-07T03:05:12.008Z,89.10
2022-08-07T03:07:43.192Z,89.10
2022-08-07T03:09:52.614Z,89.10
2022-08-07T03:11:57.868Z,89.00
2022-08-07T03:14:07.846Z,88.80
2022-08-07T03:16:10.934Z,88.50
2022-08-07T03:18:17.625Z,88.90
2022-08-07T03:20:30.100Z,88.50
2022-08-07T03:22:34.703Z,88.10
2022-08-07T03:24:37.317Z,87.80
2022-08-07T03:26:51.183Z,87.60
2022-08-07T03:29:04.177Z,87.70
2022-08-07T03:31:24.728Z,88.00
2022-08-07T03:33:46.837Z,88.80
2022-08-07T03:35:52.582Z,88.80
2022-08-07T03:38:04.780Z,88.60
2022-08-07T03:40:15.072Z,88.20
2022-08-07T03:42:20.217Z,87.90
2022-08-07T03:44:34.438Z,87.70
2022-08-07T03:47:10.803Z,87.20
2022-08-07T03:49:21.814Z,87.20
2022-08-07T03:51:30.856Z,87.60
2022-08-07T03:54:02.068Z,88.10
2022-08-07T03:56:04.376Z,88.50
2022-08-07T03:59:07.202Z,88.90
2022-08-07T04:00:36.565Z,89.20
2022-08-07T04:02:43.077Z,89.60
2022-08-07T04:04:57.981Z,90.00
2022-08-07T04:07:02.376Z,90.20
2022-08-07T04:09:23.035Z,90.40
2022-08-07T04:12:25.002Z,90.50
2022-08-07T04:14:10.658Z,90.50
2022-08-07T04:16:15.796Z,90.50
2022-08-07T04:18:59.524Z,90.70
2022-08-07T04:20:55.987Z,90.60
2022-08-07T04:23:01.192Z,90.60
2022-08-07T04:25:08.896Z,90.50
2022-08-07T04:27:25.287Z,90.30
2022-08-07T04:29:57.187Z,90.30
2022-08-07T04:32:02.953Z,90.20
2022-08-07T04:34:16.502Z,90.30
2022-08-07T04:36:22.867Z,90.30
2022-08-07T04:38:29.785Z,90.20
2022-08-07T04:40:34.914Z,90.10
2022-08-07T04:42:38.237Z,90.10
2022-08-07T04:44:54.528Z,90.20
2022-08-07T04:47:23.685Z,90.10
2022-08-07T04:50:03.543Z,90.00
2022-08-07T04:52:46.952Z,89.90
2022-08-07T04:55:14.878Z,89.80
2022-08-07T04:58:12.099Z,89.80
2022-08-07T05:00:53.586Z,89.60
2022-08-07T05:03:38.923Z,90.10
2022-08-07T05:06:16.299Z,90.10
2022-08-07T05:08:59.458Z,90.10
2022-08-07T05:11:19.468Z,90.20
2022-08-07T05:14:52.588Z,90.20
2022-08-07T05:16:07.849Z,90.30
2022-08-07T05:18:23.260Z,90.50
2022-08-07T05:20:55.269Z,90.30
2022-08-07T05:23:05.286Z,90.10
2022-08-07T05:25:25.326Z,90.00
2022-08-07T05:28:02.872Z,89.70
2022-08-07T05:30:04.396Z,89.50
2022-08-07T05:32:09.964Z,89.40
2022-08-07T05:34:17.253Z,89.50
2022-08-07T05:36:30.312Z,89.60
2022-08-07T05:39:00.672Z,89.30
2022-08-07T05:40:58.460Z,89.30
2022-08-07T05:43:01.818Z,89.20
2022-08-07T05:45:26.259Z,89.00
2022-08-07T05:47:38.200Z,89.00
2022-08-07T05:49:58.306Z,88.50
2022-08-07T05:52:32.187Z,88.70
2022-08-07T05:54:44.433Z,88.40
2022-08-07T05:56:58.890Z,88.30
2022-08-07T05:59:03.900Z,88.90
2022-08-07T06:01:13.262Z,88.00
2022-08-07T06:03:21.365Z,87.80
2022-08-07T06:05:28.780Z,87.50
2022-08-07T06:08:29.165Z,86.90
2022-08-07T06:10:11.216Z,86.40
2022-08-07T06:12:21.121Z,85.40
2022-08-07T06:14:35.228Z,84.50
2022-08-07T06:16:50.430Z,82.40
2022-08-07T06:19:02.604Z,81.40
2022-08-07T06:22:15.936Z,80.70
2022-08-07T06:24:37.285Z,79.80
2022-08-07T06:26:01.601Z,79.20
2022-08-07T06:28:14.067Z,78.60
2022-08-07T06:30:32.038Z,77.10
2022-08-07T06:32:44.438Z,76.90
2022-08-07T06:34:48.760Z,75.70
2022-08-07T06:36:52.467Z,73.80
2022-08-07T06:40:17.951Z,73.00
2022-08-07T06:42:00.787Z,72.70
2022-08-07T06:44:16.937Z,71.90
2022-08-07T06:46:31.293Z,71.60
2022-08-07T06:48:38.617Z,70.80
2022-08-07T06:50:47.881Z,70.20
2022-08-07T06:52:55.687Z,70.20
2022-08-07T06:55:32.700Z,69.80
2022-08-07T06:57:47.133Z,69.30
2022-08-07T07:00:12.087Z,68.40
2022-08-07T07:02:48.551Z,67.70
2022-08-07T07:04:54.736Z,67.30
2022-08-07T07:07:01.113Z,67.30
2022-08-07T07:09:25.401Z,66.80
2022-08-07T07:12:07.945Z,66.10
2022-08-07T07:14:02.716Z,65.30
2022-08-07T07:16:19.593Z,65.10
2022-08-07T07:19:11.247Z,64.70
2022-08-07T07:22:04.328Z,64.00
2022-08-07T07:24:09.133Z,60.80
2022-08-07T07:26:34.882Z,60.10
2022-08-07T07:29:39.748Z,60.50
2022-08-07T07:31:21.848Z,60.80
2022-08-07T07:33:28.796Z,60.90
2022-08-07T07:35:44.118Z,61.00
2022-08-07T07:38:02.646Z,60.30
2022-08-07T07:40:16.488Z,59.60
2022-08-07T07:42:22.259Z,59.40
2022-08-07T07:44:39.811Z,59.10
2022-08-07T07:46:54.694Z,59.00
2022-08-07T07:50:29.800Z,58.80
2022-08-07T07:51:31.417Z,58.60
2022-08-07T07:53:56.230Z,57.60
2022-08-07T07:56:03.267Z,57.50
2022-08-07T07:58:06.987Z,58.30
2022-08-07T08:00:12.373Z,57.70
2022-08-07T08:02:35.707Z,56.90
2022-08-07T08:04:40.395Z,56.40
2022-08-07T08:06:50.922Z,56.10
2022-08-07T08:08:55.402Z,56.20
2022-08-07T08:11:05.839Z,56.30
2022-08-07T08:13:15.249Z,56.00
2022-08-07T08:15:18.230Z,55.00
2022-08-07T08:18:37.004Z,55.30
2022-08-07T08:20:47.989Z,55.00
2022-08-07T08:23:14.364Z,53.60
2022-08-07T08:25:42.478Z,53.60
2022-08-07T08:27:56.406Z,53.70
2022-08-07T08:30:14.296Z,52.70
2022-08-07T08:32:38.470Z,51.90
2022-08-07T08:34:46.080Z,51.30
2022-08-07T08:36:56.134Z,51.30
2022-08-07T08:39:11.243Z,50.20
2022-08-07T08:41:56.775Z,47.80
2022-08-07T08:44:15.613Z,45.30
2022-08-07T08:46:44.954Z,45.20
2022-08-07T08:49:19.202Z,44.70
2022-08-07T08:52:13.968Z,44.10
2022-08-07T08:54:49.715Z,43.40
2022-08-07T08:56:54.821Z,43.50
2022-08-07T08:59:41.973Z,43.80
2022-08-07T09:02:03.980Z,44.60
2022-08-07T09:04:40.856Z,45.20
2022-08-07T09:07:11.366Z,46.00
2022-08-07T09:09:43.381Z,46.20
2022-08-07T09:12:20.295Z,45.90
2022-08-07T09:14:36.863Z,45.30
2022-08-07T09:17:02.553Z,46.00
2022-08-07T09:19:56.637Z,45.60
2022-08-07T09:22:36.945Z,46.20
2022-08-07T09:24:58.969Z,45.20
2022-08-07T09:28:00.016Z,45.30
2022-08-07T09:30:09.414Z,46.20
2022-08-07T09:32:21.040Z,46.40
2022-08-07T09:34:41.927Z,46.50
2022-08-07T09:37:07.596Z,46.40
2022-08-07T09:39:27.444Z,44.70
2022-08-07T09:41:59.085Z,44.60
2022-08-07T09:44:46.517Z,43.80
2022-08-07T09:47:59.972Z,43.90
2022-08-07T09:50:18.680Z,44.70
2022-08-07T09:52:40.564Z,44.40
2022-08-07T09:54:58.593Z,45.80
2022-08-07T09:57:37.106Z,45.90
2022-08-07T10:00:08.378Z,45.80
2022-08-07T10:02:54.938Z,46.00
2022-08-07T10:05:29.449Z,45.80
2022-08-07T10:08:29.701Z,44.30
2022-08-07T10:11:16.753Z,44.80
2022-08-07T10:14:00.391Z,45.70
2022-08-07T10:16:27.447Z,44.80
2022-08-07T10:18:50.080Z,45.50
2022-08-07T10:22:15.010Z,44.80
2022-08-07T10:24:18.698Z,43.10
2022-08-07T10:26:33.075Z,42.70
2022-08-07T10:29:16.846Z,43.10
2022-08-07T10:32:35.729Z,41.60
2022-08-07T10:35:09.082Z,41.90
2022-08-07T10:38:02.447Z,42.90
2022-08-07T10:40:35.654Z,42.90
2022-08-07T10:43:03.128Z,43.40
2022-08-07T10:45:44.944Z,43.00
2022-08-07T10:48:13.584Z,42.50
2022-08-07T10:50:50.182Z,42.80
2022-08-07T10:53:25.024Z,42.40
2022-08-07T10:55:50.406Z,42.30
2022-08-07T10:58:33.327Z,41.80
2022-08-07T11:01:23.827Z,41.60
2022-08-07T11:03:42.946Z,42.00
2022-08-07T11:06:21.981Z,42.70
2022-08-07T11:08:53.207Z,43.50
2022-08-07T11:11:03.756Z,43.70
2022-08-07T11:14:44.638Z,43.60
2022-08-07T11:15:56.041Z,43.70
2022-08-07T11:18:06.372Z,43.60
2022-08-07T11:20:24.701Z,44.00
2022-08-07T11:22:37.122Z,43.80
2022-08-07T11:25:17.613Z,44.00
2022-08-07T11:28:03.283Z,44.30
2022-08-07T11:30:18.940Z,44.60
2022-08-07T11:32:43.892Z,44.60
2022-08-07T11:34:56.001Z,44.40
2022-08-07T11:37:58.364Z,45.30
2022-08-07T11:40:59.612Z,45.90
2022-08-07T11:43:19.321Z,45.80
2022-08-07T11:46:03.334Z,45.30
2022-08-07T11:49:10.282Z,44.00
2022-08-07T11:51:41.442Z,44.30
2022-08-07T11:54:42.136Z,44.70
2022-08-07T11:57:03.897Z,43.20
2022-08-07T12:00:10.778Z,42.50
2022-08-07T12:02:52.735Z,40.00
2022-08-07T12:05:15.241Z,40.70
2022-08-07T12:07:39.853Z,40.30
2022-08-07T12:09:58.824Z,39.00
2022-08-07T12:12:14.312Z,38.40
2022-08-07T12:14:27.788Z,38.90
2022-08-07T12:16:41.757Z,39.50
2022-08-07T12:19:06.760Z,39.10
2022-08-07T12:22:37.767Z,37.10
2022-08-07T12:26:00.328Z,37.50
2022-08-07T12:28:05.753Z,38.40
2022-08-07T12:30:11.810Z,39.30
2022-08-07T12:32:16.061Z,38.90
2022-08-07T12:34:22.808Z,39.20
2022-08-07T12:36:33.397Z,39.00
2022-08-07T12:38:43.400Z,38.60
2022-08-07T12:40:52.440Z,38.30
2022-08-07T12:42:59.630Z,38.90
2022-08-07T12:45:13.840Z,39.30
2022-08-07T12:47:53.772Z,39.80
2022-08-07T12:50:39.592Z,39.50
2022-08-07T12:53:22.194Z,40.00
2022-08-07T12:55:41.378Z,40.20
2022-08-07T12:58:08.194Z,40.60
2022-08-07T13:00:16.400Z,41.10
2022-08-07T13:03:59.351Z,41.30
2022-08-07T13:06:27.765Z,41.30
2022-08-07T13:09:01.561Z,41.60
2022-08-07T13:12:10.046Z,41.70
2022-08-07T13:15:06.662Z,42.40
2022-08-07T13:17:40.644Z,42.50
2022-08-07T13:20:12.771Z,42.40
2022-08-07T13:22:32.971Z,42.80
2022-08-07T13:24:53.889Z,43.00
2022-08-07T13:27:21.207Z,43.40
2022-08-07T13:30:05.960Z,43.60
2022-08-07T13:32:35.173Z,42.70
2022-08-07T13:35:08.899Z,43.10
2022-08-07T13:37:28.736Z,42.10
2022-08-07T13:40:36.459Z,43.00
2022-08-07T13:42:50.042Z,42.20
2022-08-07T13:46:07.219Z,42.10
2022-08-07T13:47:25.204Z,41.60
2022-08-07T13:50:33.175Z,41.70
2022-08-07T13:52:27.076Z,41.60
2022-08-07T13:54:33.594Z,40.90
2022-08-07T13:56:41.249Z,40.90
2022-08-07T13:59:02.099Z,40.60
2022-08-07T14:01:22.051Z,41.10
2022-08-07T14:03:29.549Z,41.00
2022-08-07T14:05:57.083Z,41.10
2022-08-07T14:08:02.846Z,40.80
2022-08-07T14:10:17.474Z,40.50
2022-08-07T14:12:57.413Z,41.00
2022-08-07T14:15:07.928Z,40.30
2022-08-07T14:18:12.312Z,40.10
2022-08-07T14:20:40.393Z,40.30
2022-08-07T14:22:34.136Z,40.30
2022-08-07T14:24:46.015Z,40.40
2022-08-07T14:26:56.504Z,40.20
2022-08-07T14:30:02.794Z,40.30
2022-08-07T14:33:53.867Z,40.80
2022-08-07T14:36:02.048Z,41.00
2022-08-07T14:38:07.620Z,40.80
2022-08-07T14:40:26.524Z,40.60
2022-08-07T14:42:59.899Z,41.10
2022-08-07T14:45:21.471Z,41.10
2022-08-07T14:47:26.568Z,41.70
2022-08-07T14:52:47.949Z,42.10
2022-08-07T14:57:19.147Z,42.10
2022-08-07T15:00:03.253Z,41.60
2022-08-07T15:01:51.134Z,41.70
2022-08-07T15:04:03.914Z,42.00
2022-08-07T15:06:09.573Z,41.90
2022-08-07T15:08:13.994Z,41.90
2022-08-07T15:10:29.933Z,42.00
2022-08-07T15:12:36.518Z,42.00
2022-08-07T15:14:57.650Z,42.00
2022-08-07T15:17:12.002Z,42.10
2022-08-07T15:19:18.989Z,42.20
2022-08-07T15:22:29.494Z,42.10
2022-08-07T15:25:12.747Z,42.20
2022-08-07T15:27:19.806Z,42.10
2022-08-07T15:30:08.530Z,42.30
2022-08-07T15:32:04.979Z,42.10
2022-08-07T15:34:15.048Z,41.50
2022-08-07T15:38:58.877Z,41.30
2022-08-07T15:41:24.017Z,41.30
2022-08-07T15:43:55.817Z,41.20
2022-08-07T15:46:31.804Z,41.20
2022-08-07T15:49:04.017Z,41.50
2022-08-07T15:51:10.084Z,41.50
2022-08-07T15:53:52.271Z,41.60
2022-08-07T15:56:02.791Z,41.70
2022-08-07T15:58:14.497Z,42.20
2022-08-07T16:00:34.049Z,42.30
2022-08-07T16:02:46.663Z,42.60
2022-08-07T16:05:01.431Z,42.10
2022-08-07T16:07:32.040Z,42.00
2022-08-07T16:09:47.137Z,41.90
2022-08-07T16:12:33.572Z,42.00
2022-08-07T16:14:59.147Z,41.40
2022-08-07T16:18:02.993Z,41.40
2022-08-07T16:20:06.608Z,41.60
2022-08-07T16:22:54.969Z,41.80
2022-08-07T16:25:54.513Z,41.80
2022-08-07T16:30:07.033Z,41.90
2022-08-07T16:31:57.397Z,41.80
2022-08-07T16:34:10.005Z,41.70
2022-08-07T16:36:20.933Z,41.80
2022-08-07T16:39:00.664Z,41.90
2022-08-07T16:41:41.730Z,42.00
2022-08-07T16:44:05.912Z,42.10
2022-08-07T16:47:09.567Z,41.90
2022-08-07T16:50:20.465Z,42.00
2022-08-07T16:52:50.343Z,42.00
2022-08-07T16:55:13.154Z,42.10
2022-08-07T16:58:02.345Z,42.10
2022-08-07T17:00:15.049Z,42.60
2022-08-07T17:03:04.730Z,42.80
2022-08-07T17:06:19.004Z,42.60
2022-08-07T17:08:09.260Z,42.00
2022-08-07T17:10:54.338Z,41.80
2022-08-07T17:13:03.553Z,43.30
2022-08-07T17:15:15.764Z,43.00
2022-08-07T17:17:49.056Z,46.10
2022-08-07T17:20:03.418Z,47.30
2022-08-07T17:22:37.501Z,45.10
2022-08-07T17:25:01.163Z,45.60
2022-08-07T17:27:51.186Z,46.40
2022-08-07T17:30:16.121Z,45.90
2022-08-07T17:32:52.881Z,45.80
2022-08-07T17:35:49.903Z,45.10
2022-08-07T17:38:09.585Z,44.40
2022-08-07T17:40:35.802Z,44.50
2022-08-07T17:42:58.623Z,45.10
2022-08-07T17:45:14.912Z,45.20
2022-08-07T17:47:42.118Z,45.70
2022-08-07T17:49:58.550Z,45.80
2022-08-07T17:52:41.381Z,45.90
2022-08-07T17:55:01.718Z,45.70
2022-08-07T17:57:20.453Z,45.60
2022-08-07T17:59:46.588Z,45.60
2022-08-07T18:02:23.456Z,45.50
2022-08-07T18:05:21.795Z,45.60
2022-08-07T18:07:43.725Z,45.70
2022-08-07T18:10:07.477Z,45.90
2022-08-07T18:12:51.976Z,46.10
2022-08-07T18:15:09.669Z,46.40
2022-08-07T18:18:46.657Z,46.50
2022-08-07T18:21:09.469Z,46.80
2022-08-07T18:23:06.365Z,47.30
2022-08-07T18:25:40.254Z,47.40
2022-08-07T18:28:15.259Z,47.60
2022-08-07T18:31:05.417Z,47.70
2022-08-07T18:33:55.093Z,47.70
2022-08-07T18:36:33.412Z,48.10
2022-08-07T18:40:05.542Z,48.40
2022-08-07T18:41:45.990Z,48.70
2022-08-07T18:44:31.206Z,49.30
2022-08-07T18:47:01.682Z,49.80
2022-08-07T18:50:30.414Z,50.10
2022-08-07T18:52:52.864Z,50.10
2022-08-07T18:55:40.998Z,50.00
2022-08-07T18:57:58.507Z,50.20
2022-08-07T19:00:34.061Z,50.50
2022-08-07T19:02:59.736Z,50.60
2022-08-07T19:05:15.764Z,50.90
2022-08-07T19:08:03.760Z,51.30
2022-08-07T19:10:21.443Z,51.40
2022-08-07T19:12:53.710Z,51.50
2022-08-07T19:16:04.981Z,52.00
2022-08-07T19:18:34.620Z,53.70
2022-08-07T19:21:42.749Z,55.00
2022-08-07T19:23:59.022Z,56.00
2022-08-07T19:26:22.998Z,58.00
2022-08-07T19:30:54.412Z,56.30
2022-08-07T19:31:41.455Z,56.00
2022-08-07T19:33:33.582Z,56.60
2022-08-07T19:35:40.381Z,56.30
2022-08-07T19:37:56.350Z,55.60
2022-08-07T19:40:04.551Z,55.80
2022-08-07T19:42:24.451Z,55.10
2022-08-07T19:44:41.201Z,54.90
2022-08-07T19:46:55.601Z,54.90
2022-08-07T19:49:08.439Z,56.00
2022-08-07T19:51:19.137Z,56.10
2022-08-07T19:54:33.256Z,55.80
2022-08-07T19:55:57.496Z,55.40
2022-08-07T19:58:13.366Z,55.40
2022-08-07T20:00:28.386Z,54.80
2022-08-07T20:02:38.969Z,54.70
2022-08-07T20:04:49.375Z,54.70
2022-08-07T20:06:56.530Z,54.70
2022-08-07T20:09:02.961Z,54.90
2022-08-07T20:11:12.072Z,55.30
2022-08-07T20:13:42.055Z,55.20
2022-08-07T20:15:46.068Z,55.20
2022-08-07T20:17:56.269Z,55.30
2022-08-07T20:20:07.516Z,55.40
2022-08-07T20:22:17.721Z,55.70
2022-08-07T20:24:34.902Z,55.60
2022-08-07T20:26:52.139Z,56.00
2022-08-07T20:28:59.740Z,56.00
2022-08-07T20:31:11.236Z,56.10
2022-08-07T20:33:38.347Z,56.50
2022-08-07T20:35:54.657Z,56.60
2022-08-07T20:38:07.396Z,56.70
2022-08-07T20:40:33.124Z,56.80
2022-08-07T20:42:39.730Z,56.90
2022-08-07T20:44:49.574Z,57.10
2022-08-07T20:47:04.297Z,57.00
2022-08-07T20:50:01.030Z,57.50
2022-08-07T20:51:35.932Z,57.60
2022-08-07T20:54:04.171Z,57.40
2022-08-07T20:56:05.632Z,57.90
2022-08-07T20:58:19.709Z,58.90
2022-08-07T21:00:44.498Z,58.30
2022-08-07T21:03:03.131Z,58.00
2022-08-07T21:05:17.181Z,58.00
2022-08-07T21:07:42.388Z,58.00
2022-08-07T21:10:00.204Z,57.80
2022-08-07T21:12:08.285Z,57.80
2022-08-07T21:14:32.797Z,57.90
2022-08-07T21:18:01.094Z,58.00
2022-08-07T21:19:51.892Z,58.60
2022-08-07T21:21:57.736Z,59.90
2022-08-07T21:24:17.758Z,60.50
2022-08-07T21:26:56.735Z,60.90
2022-08-07T21:29:30.585Z,61.60
2022-08-07T21:32:43.005Z,61.60
2022-08-07T21:34:31.778Z,61.70
2022-08-07T21:36:59.462Z,62.40
2022-08-07T21:39:48.574Z,61.50
2022-08-07T21:42:48.155Z,61.50
2022-08-07T21:45:24.268Z,62.00
2022-08-07T21:48:01.417Z,62.20
2022-08-07T21:50:14.454Z,62.80
2022-08-07T21:52:50.263Z,63.20
2022-08-07T21:55:28.362Z,63.60
2022-08-07T21:58:32.418Z,65.20
2022-08-07T22:00:39.955Z,66.60
2022-08-07T22:03:16.547Z,67.10
2022-08-07T22:05:44.386Z,67.00
2022-08-07T22:07:58.439Z,65.70
2022-08-07T22:10:06.374Z,65.20
2022-08-07T22:12:24.565Z,65.00
2022-08-07T22:14:37.830Z,65.60
2022-08-07T22:17:04.221Z,66.70
2022-08-07T22:19:30.149Z,67.80
2022-08-07T22:22:04.805Z,67.80
2022-08-07T22:24:21.484Z,67.90
2022-08-07T22:27:02.681Z,67.80
2022-08-07T22:29:47.540Z,67.80
2022-08-07T22:32:05.973Z,67.50
2022-08-07T22:34:53.423Z,67.70
2022-08-07T22:37:12.402Z,68.10
2022-08-07T22:39:52.840Z,68.20
2022-08-07T22:42:25.604Z,67.90
2022-08-07T22:44:36.058Z,67.90
2022-08-07T22:47:08.858Z,68.20
2022-08-07T22:49:54.521Z,68.50
2022-08-07T22:52:36.561Z,68.90
2022-08-07T22:55:30.988Z,69.40
2022-08-07T22:58:10.609Z,69.20
2022-08-07T23:00:29.194Z,69.50
2022-08-07T23:03:57.975Z,69.20
2022-08-07T23:06:16.584Z,70.10
2022-08-07T23:08:56.000Z,71.90
2022-08-07T23:11:41.380Z,71.00
2022-08-07T23:14:20.823Z,70.90
2022-08-07T23:16:59.397Z,70.50
2022-08-07T23:19:48.298Z,70.40
2022-08-07T23:22:31.238Z,70.50
2022-08-07T23:25:19.104Z,71.30
2022-08-07T23:28:22.924Z,71.20
2022-08-07T23:30:37.236Z,72.00
2022-08-07T23:34:22.144Z,71.70
2022-08-07T23:35:55.860Z,72.10
2022-08-07T23:38:36.209Z,71.90
2022-08-07T23:40:55.999Z,71.90
2022-08-07T23:43:18.402Z,72.00
2022-08-07T23:46:02.873Z,72.20
2022-08-07T23:48:34.206Z,72.00
2022-08-07T23:52:53.489Z,72.40
2022-08-07T23:53:49.461Z,72.70
2022-08-07T23:56:13.231Z,72.80
2022-08-07T23:58:27.106Z,72.70
